sensor_id;sensor_type;location;lat;lon;timestamp;temperature;humidity
5786;DHT22;2919;48.630;9.000;2022-07-29T00:00:05;17.70;99.90
5786;DHT22;2919;48.630;9.000;2022-07-29T00:02:31;17.70;99.90
5786;DHT22;2919;48.630;9.000;2022-07-29T00:04:57;17.60;99.90
5786;DHT22;2919;48.630;9.000;2022-07-29T00:07:23;17.60;99.90
5786;DHT22;2919;48.630;9.000;2022-07-29T00:09:49;17.60;99.90
5786;DHT22;2919;48.630;9.000;2022-07-29T00:12:14;17.60;99.90
5786;DHT22;2919;48.630;9.000;2022-07-29T00:14:40;17.50;99.90
5786;DHT22;2919;48.630;9.000;2022-07-29T00:17:06;17.50;99.90
5786;DHT22;2919;48.630;9.000;2022-07-29T00:19:31;17.50;99.90
5786;DHT22;2919;48.630;9.000;2022-07-29T00:21:57;17.50;99.90
5786;DHT22;2919;48.630;9.000;2022-07-29T00:24:23;17.40;99.90
5786;DHT22;2919;48.630;9.000;2022-07-29T00:26:48;17.40;99.90
5786;DHT22;2919;48.630;9.000;2022-07-29T00:29:14;17.40;99.90
5786;DHT22;2919;48.630;9.000;2022-07-29T00:31:39;17.40;99.90
5786;DHT22;2919;48.630;9.000;2022-07-29T00:34:05;17.30;99.90
5786;DHT22;2919;48.630;9.000;2022-07-29T00:36:51;17.30;99.90
5786;DHT22;2919;48.630;9.000;2022-07-29T00:39:16;17.30;99.90
5786;DHT22;2919;48.630;9.000;2022-07-29T00:41:42;17.30;99.90
5786;DHT22;2919;48.630;9.000;2022-07-29T00:44:08;17.30;99.90
5786;DHT22;2919;48.630;9.000;2022-07-29T00:46:33;17.30;99.90
5786;DHT22;2919;48.630;9.000;2022-07-29T00:48:59;17.40;99.90
5786;DHT22;2919;48.630;9.000;2022-07-29T00:51:26;17.30;99.90
5786;DHT22;2919;48.630;9.000;2022-07-29T00:53:53;17.30;99.90
5786;DHT22;2919;48.630;9.000;2022-07-29T00:56:19;17.30;99.90
5786;DHT22;2919;48.630;9.000;2022-07-29T00:58:46;17.30;99.90
5786;DHT22;2919;48.630;9.000;2022-07-29T01:01:12;17.30;99.90
5786;DHT22;2919;48.630;9.000;2022-07-29T01:03:38;17.30;99.90
5786;DHT22;2919;48.630;9.000;2022-07-29T01:06:04;17.20;99.90
5786;DHT22;2919;48.630;9.000;2022-07-29T01:08:31;17.20;99.90
5786;DHT22;2919;48.630;9.000;2022-07-29T01:10:59;17.20;99.90
5786;DHT22;2919;48.630;9.000;2022-07-29T01:13:26;17.20;99.90
5786;DHT22;2919;48.630;9.000;2022-07-29T01:16:14;17.20;99.90
5786;DHT22;2919;48.630;9.000;2022-07-29T01:18:46;17.20;99.90
5786;DHT22;2919;48.630;9.000;2022-07-29T01:29:58;17.10;99.90
5786;DHT22;2919;48.630;9.000;2022-07-29T01:32:29;17.20;99.90
5786;DHT22;2919;48.630;9.000;2022-07-29T01:37:48;17.10;99.90
5786;DHT22;2919;48.630;9.000;2022-07-29T01:40:31;17.10;99.90
5786;DHT22;2919;48.630;9.000;2022-07-29T01:43:06;17.10;99.90
5786;DHT22;2919;48.630;9.000;2022-07-29T01:45:40;17.00;99.90
5786;DHT22;2919;48.630;9.000;2022-07-29T01:48:13;17.00;99.90
5786;DHT22;2919;48.630;9.000;2022-07-29T01:50:46;17.00;99.90
5786;DHT22;2919;48.630;9.000;2022-07-29T01:53:16;17.00;99.90
5786;DHT22;2919;48.630;9.000;2022-07-29T01:55:44;17.00;99.90
5786;DHT22;2919;48.630;9.000;2022-07-29T01:58:12;16.90;99.90
5786;DHT22;2919;48.630;9.000;2022-07-29T02:00:43;16.90;99.90
5786;DHT22;2919;48.630;9.000;2022-07-29T02:03:11;16.90;99.90
5786;DHT22;2919;48.630;9.000;2022-07-29T02:05:41;16.90;99.90
5786;DHT22;2919;48.630;9.000;2022-07-29T02:08:08;17.00;99.90
5786;DHT22;2919;48.630;9.000;2022-07-29T02:10:35;16.90;99.90
5786;DHT22;2919;48.630;9.000;2022-07-29T02:13:02;17.00;99.90
5786;DHT22;2919;48.630;9.000;2022-07-29T02:15:30;16.90;99.90
5786;DHT22;2919;48.630;9.000;2022-07-29T02:18:13;16.90;99.90
5786;DHT22;2919;48.630;9.000;2022-07-29T02:20:42;16.90;99.90
5786;DHT22;2919;48.630;9.000;2022-07-29T02:23:11;16.90;99.90
5786;DHT22;2919;48.630;9.000;2022-07-29T02:25:37;16.90;99.90
5786;DHT22;2919;48.630;9.000;2022-07-29T02:28:03;17.00;99.90
5786;DHT22;2919;48.630;9.000;2022-07-29T02:30:31;17.00;99.90
5786;DHT22;2919;48.630;9.000;2022-07-29T02:32:58;16.90;99.90
5786;DHT22;2919;48.630;9.000;2022-07-29T02:35:24;16.90;99.90
5786;DHT22;2919;48.630;9.000;2022-07-29T02:37:51;16.90;99.90
5786;DHT22;2919;48.630;9.000;2022-07-29T02:40:38;16.90;99.90
5786;DHT22;2919;48.630;9.000;2022-07-29T02:43:05;16.80;99.90
5786;DHT22;2919;48.630;9.000;2022-07-29T02:45:32;16.80;99.90
5786;DHT22;2919;48.630;9.000;2022-07-29T02:48:00;16.80;99.90
5786;DHT22;2919;48.630;9.000;2022-07-29T02:50:34;16.80;99.90
5786;DHT22;2919;48.630;9.000;2022-07-29T02:53:17;16.70;99.90
5786;DHT22;2919;48.630;9.000;2022-07-29T02:55:46;16.70;99.90
5786;DHT22;2919;48.630;9.000;2022-07-29T02:58:32;16.70;99.90
5786;DHT22;2919;48.630;9.000;2022-07-29T03:01:03;16.70;99.90
5786;DHT22;2919;48.630;9.000;2022-07-29T03:03:34;16.70;99.90
5786;DHT22;2919;48.630;9.000;2022-07-29T03:06:01;16.70;99.90
5786;DHT22;2919;48.630;9.000;2022-07-29T03:08:28;16.70;99.90
5786;DHT22;2919;48.630;9.000;2022-07-29T03:10:55;16.70;99.90
5786;DHT22;2919;48.630;9.000;2022-07-29T03:13:21;16.70;99.90
5786;DHT22;2919;48.630;9.000;2022-07-29T03:15:47;16.70;99.90
5786;DHT22;2919;48.630;9.000;2022-07-29T03:18:14;16.70;99.90
5786;DHT22;2919;48.630;9.000;2022-07-29T03:20:40;16.70;99.90
5786;DHT22;2919;48.630;9.000;2022-07-29T03:23:08;16.70;99.90
5786;DHT22;2919;48.630;9.000;2022-07-29T03:25:34;16.70;99.90
5786;DHT22;2919;48.630;9.000;2022-07-29T03:27:59;16.70;99.90
5786;DHT22;2919;48.630;9.000;2022-07-29T03:30:25;16.70;99.90
5786;DHT22;2919;48.630;9.000;2022-07-29T03:32:51;16.60;99.90
5786;DHT22;2919;48.630;9.000;2022-07-29T03:35:17;16.60;99.90
5786;DHT22;2919;48.630;9.000;2022-07-29T03:37:43;16.50;99.90
5786;DHT22;2919;48.630;9.000;2022-07-29T03:40:12;16.50;99.90
5786;DHT22;2919;48.630;9.000;2022-07-29T03:42:40;16.50;99.90
5786;DHT22;2919;48.630;9.000;2022-07-29T03:45:11;16.40;99.90
5786;DHT22;2919;48.630;9.000;2022-07-29T03:47:42;16.40;99.90
5786;DHT22;2919;48.630;9.000;2022-07-29T03:50:11;16.40;99.90
5786;DHT22;2919;48.630;9.000;2022-07-29T03:52:40;16.40;99.90
5786;DHT22;2919;48.630;9.000;2022-07-29T03:55:06;16.40;99.90
5786;DHT22;2919;48.630;9.000;2022-07-29T03:57:33;16.30;99.90
5786;DHT22;2919;48.630;9.000;2022-07-29T04:00:02;16.30;99.90
5786;DHT22;2919;48.630;9.000;2022-07-29T04:02:28;16.30;99.90
5786;DHT22;2919;48.630;9.000;2022-07-29T04:04:54;16.30;99.90
5786;DHT22;2919;48.630;9.000;2022-07-29T04:07:20;16.30;99.90
5786;DHT22;2919;48.630;9.000;2022-07-29T04:09:46;16.30;99.90
5786;DHT22;2919;48.630;9.000;2022-07-29T04:12:11;16.30;99.90
5786;DHT22;2919;48.630;9.000;2022-07-29T04:14:37;16.20;99.90
5786;DHT22;2919;48.630;9.000;2022-07-29T04:17:03;16.20;99.90
5786;DHT22;2919;48.630;9.000;2022-07-29T04:19:29;16.30;99.90
5786;DHT22;2919;48.630;9.000;2022-07-29T04:21:55;16.20;99.90
5786;DHT22;2919;48.630;9.000;2022-07-29T04:24:21;16.30;99.90
5786;DHT22;2919;48.630;9.000;2022-07-29T04:26:47;16.30;99.90
5786;DHT22;2919;48.630;9.000;2022-07-29T04:29:13;16.20;99.90
5786;DHT22;2919;48.630;9.000;2022-07-29T04:31:40;16.20;99.90
5786;DHT22;2919;48.630;9.000;2022-07-29T04:34:06;16.30;99.90
5786;DHT22;2919;48.630;9.000;2022-07-29T04:36:32;16.20;99.90
5786;DHT22;2919;48.630;9.000;2022-07-29T04:38:57;16.30;99.90
5786;DHT22;2919;48.630;9.000;2022-07-29T04:41:23;16.30;99.90
5786;DHT22;2919;48.630;9.000;2022-07-29T04:43:49;16.30;99.90
5786;DHT22;2919;48.630;9.000;2022-07-29T04:46:15;16.30;99.90
5786;DHT22;2919;48.630;9.000;2022-07-29T04:48:40;16.40;99.90
5786;DHT22;2919;48.630;9.000;2022-07-29T04:51:06;16.40;99.90
5786;DHT22;2919;48.630;9.000;2022-07-29T04:53:32;16.50;99.90
5786;DHT22;2919;48.630;9.000;2022-07-29T04:55:58;16.50;99.90
5786;DHT22;2919;48.630;9.000;2022-07-29T04:58:24;16.60;99.90
5786;DHT22;2919;48.630;9.000;2022-07-29T05:00:50;16.60;99.90
5786;DHT22;2919;48.630;9.000;2022-07-29T05:03:17;16.70;99.90
5786;DHT22;2919;48.630;9.000;2022-07-29T05:05:42;16.70;99.90
5786;DHT22;2919;48.630;9.000;2022-07-29T05:08:08;16.80;99.90
5786;DHT22;2919;48.630;9.000;2022-07-29T05:10:34;16.80;99.90
5786;DHT22;2919;48.630;9.000;2022-07-29T05:13:04;16.90;99.90
5786;DHT22;2919;48.630;9.000;2022-07-29T05:15:31;17.00;99.90
5786;DHT22;2919;48.630;9.000;2022-07-29T05:17:56;17.00;99.90
5786;DHT22;2919;48.630;9.000;2022-07-29T05:20:22;17.10;99.90
5786;DHT22;2919;48.630;9.000;2022-07-29T05:22:52;17.10;99.90
5786;DHT22;2919;48.630;9.000;2022-07-29T05:25:17;17.20;99.90
5786;DHT22;2919;48.630;9.000;2022-07-29T05:27:43;17.40;99.90
5786;DHT22;2919;48.630;9.000;2022-07-29T05:30:09;17.40;99.90
5786;DHT22;2919;48.630;9.000;2022-07-29T05:32:35;17.50;99.90
5786;DHT22;2919;48.630;9.000;2022-07-29T05:35:00;17.50;99.90
5786;DHT22;2919;48.630;9.000;2022-07-29T05:37:26;17.60;99.90
5786;DHT22;2919;48.630;9.000;2022-07-29T05:39:52;17.70;99.90
5786;DHT22;2919;48.630;9.000;2022-07-29T05:42:17;17.70;99.90
5786;DHT22;2919;48.630;9.000;2022-07-29T05:44:43;17.70;99.90
5786;DHT22;2919;48.630;9.000;2022-07-29T05:47:09;17.80;99.90
5786;DHT22;2919;48.630;9.000;2022-07-29T05:49:34;17.80;99.90
5786;DHT22;2919;48.630;9.000;2022-07-29T05:52:00;17.90;99.90
5786;DHT22;2919;48.630;9.000;2022-07-29T05:54:26;17.90;99.90
5786;DHT22;2919;48.630;9.000;2022-07-29T05:56:51;18.00;99.90
5786;DHT22;2919;48.630;9.000;2022-07-29T05:59:17;18.00;99.90
5786;DHT22;2919;48.630;9.000;2022-07-29T06:01:43;18.00;99.90
5786;DHT22;2919;48.630;9.000;2022-07-29T06:04:08;18.10;99.90
5786;DHT22;2919;48.630;9.000;2022-07-29T06:06:34;18.10;99.90
5786;DHT22;2919;48.630;9.000;2022-07-29T06:09:01;18.20;99.90
5786;DHT22;2919;48.630;9.000;2022-07-29T06:11:27;18.20;99.90
5786;DHT22;2919;48.630;9.000;2022-07-29T06:13:52;18.30;99.90
5786;DHT22;2919;48.630;9.000;2022-07-29T06:16:19;18.40;99.90
5786;DHT22;2919;48.630;9.000;2022-07-29T06:18:44;18.50;99.90
5786;DHT22;2919;48.630;9.000;2022-07-29T06:21:10;18.60;99.90
5786;DHT22;2919;48.630;9.000;2022-07-29T06:23:37;18.70;99.90
5786;DHT22;2919;48.630;9.000;2022-07-29T06:26:03;18.80;99.90
5786;DHT22;2919;48.630;9.000;2022-07-29T06:28:29;18.90;99.90
5786;DHT22;2919;48.630;9.000;2022-07-29T06:30:55;19.10;99.90
5786;DHT22;2919;48.630;9.000;2022-07-29T06:33:20;19.20;99.90
5786;DHT22;2919;48.630;9.000;2022-07-29T06:35:46;19.40;99.90
5786;DHT22;2919;48.630;9.000;2022-07-29T06:38:13;19.50;99.90
5786;DHT22;2919;48.630;9.000;2022-07-29T06:40:45;19.60;99.90
5786;DHT22;2919;48.630;9.000;2022-07-29T06:43:35;19.70;99.90
5786;DHT22;2919;48.630;9.000;2022-07-29T06:46:04;19.80;99.90
5786;DHT22;2919;48.630;9.000;2022-07-29T06:48:31;19.90;99.90
5786;DHT22;2919;48.630;9.000;2022-07-29T06:50:57;20.00;99.90
5786;DHT22;2919;48.630;9.000;2022-07-29T06:53:24;20.00;99.90
5786;DHT22;2919;48.630;9.000;2022-07-29T06:55:49;20.00;99.90
5786;DHT22;2919;48.630;9.000;2022-07-29T06:58:15;20.00;99.90
5786;DHT22;2919;48.630;9.000;2022-07-29T07:00:44;20.00;99.90
5786;DHT22;2919;48.630;9.000;2022-07-29T07:03:10;20.10;99.90
5786;DHT22;2919;48.630;9.000;2022-07-29T07:05:36;20.20;99.90
5786;DHT22;2919;48.630;9.000;2022-07-29T07:08:02;20.40;99.90
5786;DHT22;2919;48.630;9.000;2022-07-29T07:10:28;20.50;99.90
5786;DHT22;2919;48.630;9.000;2022-07-29T07:12:54;20.70;99.90
5786;DHT22;2919;48.630;9.000;2022-07-29T07:15:20;20.90;99.90
5786;DHT22;2919;48.630;9.000;2022-07-29T07:17:49;21.00;99.90
5786;DHT22;2919;48.630;9.000;2022-07-29T07:20:15;21.10;99.90
5786;DHT22;2919;48.630;9.000;2022-07-29T07:22:41;21.10;99.90
5786;DHT22;2919;48.630;9.000;2022-07-29T07:25:07;21.00;99.90
5786;DHT22;2919;48.630;9.000;2022-07-29T07:27:34;21.00;99.90
5786;DHT22;2919;48.630;9.000;2022-07-29T07:29:59;21.30;99.90
5786;DHT22;2919;48.630;9.000;2022-07-29T07:32:25;21.70;99.90
5786;DHT22;2919;48.630;9.000;2022-07-29T07:34:51;21.90;99.90
5786;DHT22;2919;48.630;9.000;2022-07-29T07:37:16;22.10;99.90
5786;DHT22;2919;48.630;9.000;2022-07-29T07:39:44;22.20;99.90
5786;DHT22;2919;48.630;9.000;2022-07-29T07:42:10;22.20;99.90
5786;DHT22;2919;48.630;9.000;2022-07-29T07:44:38;22.40;99.90
5786;DHT22;2919;48.630;9.000;2022-07-29T07:47:04;22.50;99.90
5786;DHT22;2919;48.630;9.000;2022-07-29T07:49:30;22.80;99.90
5786;DHT22;2919;48.630;9.000;2022-07-29T07:51:55;23.60;99.90
5786;DHT22;2919;48.630;9.000;2022-07-29T07:54:21;24.20;99.90
5786;DHT22;2919;48.630;9.000;2022-07-29T07:56:47;25.00;99.90
5786;DHT22;2919;48.630;9.000;2022-07-29T07:59:15;25.70;99.90
5786;DHT22;2919;48.630;9.000;2022-07-29T08:01:41;26.40;99.40
5786;DHT22;2919;48.630;9.000;2022-07-29T08:04:06;26.70;98.10
5786;DHT22;2919;48.630;9.000;2022-07-29T08:06:33;27.10;96.70
5786;DHT22;2919;48.630;9.000;2022-07-29T08:09:00;27.30;94.40
5786;DHT22;2919;48.630;9.000;2022-07-29T08:11:27;27.50;94.00
5786;DHT22;2919;48.630;9.000;2022-07-29T08:13:52;28.10;93.10
5786;DHT22;2919;48.630;9.000;2022-07-29T08:16:18;27.60;92.70
5786;DHT22;2919;48.630;9.000;2022-07-29T08:18:47;27.70;91.30
5786;DHT22;2919;48.630;9.000;2022-07-29T08:21:16;27.40;92.50
5786;DHT22;2919;48.630;9.000;2022-07-29T08:23:44;27.20;93.60
5786;DHT22;2919;48.630;9.000;2022-07-29T08:26:16;27.20;92.90
5786;DHT22;2919;48.630;9.000;2022-07-29T08:28:43;27.40;92.70
5786;DHT22;2919;48.630;9.000;2022-07-29T08:31:15;27.60;92.50
5786;DHT22;2919;48.630;9.000;2022-07-29T08:33:42;27.50;92.20
5786;DHT22;2919;48.630;9.000;2022-07-29T08:36:07;27.80;91.30
5786;DHT22;2919;48.630;9.000;2022-07-29T08:38:33;28.20;91.00
5786;DHT22;2919;48.630;9.000;2022-07-29T08:41:00;28.50;91.50
5786;DHT22;2919;48.630;9.000;2022-07-29T08:43:28;28.60;90.10
5786;DHT22;2919;48.630;9.000;2022-07-29T08:45:54;28.80;86.10
5786;DHT22;2919;48.630;9.000;2022-07-29T08:48:22;29.20;82.10
5786;DHT22;2919;48.630;9.000;2022-07-29T08:50:55;29.70;81.70
5786;DHT22;2919;48.630;9.000;2022-07-29T08:53:21;29.50;81.40
5786;DHT22;2919;48.630;9.000;2022-07-29T08:55:49;29.40;81.90
5786;DHT22;2919;48.630;9.000;2022-07-29T08:58:16;29.70;82.20
5786;DHT22;2919;48.630;9.000;2022-07-29T09:00:50;30.40;80.70
5786;DHT22;2919;48.630;9.000;2022-07-29T09:03:18;30.40;77.20
5786;DHT22;2919;48.630;9.000;2022-07-29T09:05:46;29.90;75.90
5786;DHT22;2919;48.630;9.000;2022-07-29T09:08:13;29.90;72.80
5786;DHT22;2919;48.630;9.000;2022-07-29T09:10:39;29.60;76.80
5786;DHT22;2919;48.630;9.000;2022-07-29T09:13:05;29.70;75.60
5786;DHT22;2919;48.630;9.000;2022-07-29T09:15:31;29.70;74.70
5786;DHT22;2919;48.630;9.000;2022-07-29T09:17:57;29.80;76.80
5786;DHT22;2919;48.630;9.000;2022-07-29T09:20:24;29.60;77.70
5786;DHT22;2919;48.630;9.000;2022-07-29T09:22:51;29.60;76.50
5786;DHT22;2919;48.630;9.000;2022-07-29T09:25:37;29.70;78.20
5786;DHT22;2919;48.630;9.000;2022-07-29T09:28:21;29.80;78.40
5786;DHT22;2919;48.630;9.000;2022-07-29T09:30:56;29.30;79.90
5786;DHT22;2919;48.630;9.000;2022-07-29T09:33:25;29.20;80.00
5786;DHT22;2919;48.630;9.000;2022-07-29T09:36:06;28.80;80.30
5786;DHT22;2919;48.630;9.000;2022-07-29T09:38:33;28.20;81.20
5786;DHT22;2919;48.630;9.000;2022-07-29T09:41:00;27.70;84.10
5786;DHT22;2919;48.630;9.000;2022-07-29T09:43:27;27.40;85.90
5786;DHT22;2919;48.630;9.000;2022-07-29T09:45:53;27.10;86.20
5786;DHT22;2919;48.630;9.000;2022-07-29T09:48:23;26.80;87.20
5786;DHT22;2919;48.630;9.000;2022-07-29T09:50:50;26.80;87.40
5786;DHT22;2919;48.630;9.000;2022-07-29T09:53:33;26.90;87.50
5786;DHT22;2919;48.630;9.000;2022-07-29T09:55:59;27.20;86.50
5786;DHT22;2919;48.630;9.000;2022-07-29T09:58:25;27.80;85.60
5786;DHT22;2919;48.630;9.000;2022-07-29T10:00:52;28.40;83.00
5786;DHT22;2919;48.630;9.000;2022-07-29T10:03:19;28.60;81.90
5786;DHT22;2919;48.630;9.000;2022-07-29T10:05:45;28.70;84.40
5786;DHT22;2919;48.630;9.000;2022-07-29T10:08:12;29.00;83.80
5786;DHT22;2919;48.630;9.000;2022-07-29T10:10:42;28.90;82.60
5786;DHT22;2919;48.630;9.000;2022-07-29T10:13:10;29.20;81.00
5786;DHT22;2919;48.630;9.000;2022-07-29T10:15:40;29.40;80.90
5786;DHT22;2919;48.630;9.000;2022-07-29T10:18:10;29.30;79.30
5786;DHT22;2919;48.630;9.000;2022-07-29T10:20:37;28.90;80.70
5786;DHT22;2919;48.630;9.000;2022-07-29T10:23:03;28.80;80.10
5786;DHT22;2919;48.630;9.000;2022-07-29T10:25:29;28.60;81.90
5786;DHT22;2919;48.630;9.000;2022-07-29T10:27:55;28.90;82.50
5786;DHT22;2919;48.630;9.000;2022-07-29T10:30:23;28.80;80.20
5786;DHT22;2919;48.630;9.000;2022-07-29T10:44:05;27.70;78.70
5786;DHT22;2919;48.630;9.000;2022-07-29T10:46:38;27.30;79.20
5786;DHT22;2919;48.630;9.000;2022-07-29T10:54:19;24.70;87.10
5786;DHT22;2919;48.630;9.000;2022-07-29T10:56:45;23.80;92.80
5786;DHT22;2919;48.630;9.000;2022-07-29T11:01:46;22.30;99.90
5786;DHT22;2919;48.630;9.000;2022-07-29T11:04:12;21.50;99.90
5786;DHT22;2919;48.630;9.000;2022-07-29T11:09:22;20.00;99.90
5786;DHT22;2919;48.630;9.000;2022-07-29T11:11:48;19.40;99.90
5786;DHT22;2919;48.630;9.000;2022-07-29T11:14:14;19.10;99.90
5786;DHT22;2919;48.630;9.000;2022-07-29T11:17:05;18.90;99.90
5786;DHT22;2919;48.630;9.000;2022-07-29T11:19:33;18.60;99.90
5786;DHT22;2919;48.630;9.000;2022-07-29T11:21:59;18.30;99.90
5786;DHT22;2919;48.630;9.000;2022-07-29T11:24:29;18.50;99.90
5786;DHT22;2919;48.630;9.000;2022-07-29T11:27:17;18.40;99.90
5786;DHT22;2919;48.630;9.000;2022-07-29T11:32:16;18.30;99.90
5786;DHT22;2919;48.630;9.000;2022-07-29T11:34:43;18.20;99.90
5786;DHT22;2919;48.630;9.000;2022-07-29T11:39:38;18.20;99.90
5786;DHT22;2919;48.630;9.000;2022-07-29T11:47:28;18.10;99.90
5786;DHT22;2919;48.630;9.000;2022-07-29T11:49:56;18.20;99.90
5786;DHT22;2919;48.630;9.000;2022-07-29T11:52:23;18.30;99.90
5786;DHT22;2919;48.630;9.000;2022-07-29T11:54:50;18.30;99.90
5786;DHT22;2919;48.630;9.000;2022-07-29T11:57:17;18.30;99.90
5786;DHT22;2919;48.630;9.000;2022-07-29T11:59:45;18.30;99.90
5786;DHT22;2919;48.630;9.000;2022-07-29T12:02:12;18.30;99.90
5786;DHT22;2919;48.630;9.000;2022-07-29T12:04:57;18.40;99.90
5786;DHT22;2919;48.630;9.000;2022-07-29T12:07:32;18.50;99.90
5786;DHT22;2919;48.630;9.000;2022-07-29T12:09:58;18.60;99.90
5786;DHT22;2919;48.630;9.000;2022-07-29T12:12:24;18.60;99.90
5786;DHT22;2919;48.630;9.000;2022-07-29T12:14:50;18.70;99.90
5786;DHT22;2919;48.630;9.000;2022-07-29T12:17:31;18.80;99.90
5786;DHT22;2919;48.630;9.000;2022-07-29T12:19:58;18.90;99.90
5786;DHT22;2919;48.630;9.000;2022-07-29T12:22:36;19.10;99.90
5786;DHT22;2919;48.630;9.000;2022-07-29T12:25:11;19.20;99.90
5786;DHT22;2919;48.630;9.000;2022-07-29T12:27:39;19.60;99.90
5786;DHT22;2919;48.630;9.000;2022-07-29T12:30:10;19.60;99.90
5786;DHT22;2919;48.630;9.000;2022-07-29T12:35:07;19.90;99.90
5786;DHT22;2919;48.630;9.000;2022-07-29T12:37:38;20.00;99.90
5786;DHT22;2919;48.630;9.000;2022-07-29T12:40:05;20.10;99.90
5786;DHT22;2919;48.630;9.000;2022-07-29T12:42:32;20.20;99.90
5786;DHT22;2919;48.630;9.000;2022-07-29T12:44:57;20.10;99.90
5786;DHT22;2919;48.630;9.000;2022-07-29T12:47:23;20.00;99.90
5786;DHT22;2919;48.630;9.000;2022-07-29T12:49:50;19.90;99.90
5786;DHT22;2919;48.630;9.000;2022-07-29T12:52:35;19.90;99.90
5786;DHT22;2919;48.630;9.000;2022-07-29T12:55:01;19.80;99.90
5786;DHT22;2919;48.630;9.000;2022-07-29T12:57:27;19.70;99.90
5786;DHT22;2919;48.630;9.000;2022-07-29T13:00:09;19.60;99.90
5786;DHT22;2919;48.630;9.000;2022-07-29T13:02:37;19.50;99.90
5786;DHT22;2919;48.630;9.000;2022-07-29T13:05:05;19.30;99.90
5786;DHT22;2919;48.630;9.000;2022-07-29T13:07:32;19.30;99.90
5786;DHT22;2919;48.630;9.000;2022-07-29T13:10:15;19.30;99.90
5786;DHT22;2919;48.630;9.000;2022-07-29T13:15:42;18.90;99.90
5786;DHT22;2919;48.630;9.000;2022-07-29T13:18:32;18.80;99.90
5786;DHT22;2919;48.630;9.000;2022-07-29T13:21:15;18.80;99.90
5786;DHT22;2919;48.630;9.000;2022-07-29T13:23:41;18.90;99.90
5786;DHT22;2919;48.630;9.000;2022-07-29T13:26:10;19.10;99.90
5786;DHT22;2919;48.630;9.000;2022-07-29T13:28:37;19.20;99.90
5786;DHT22;2919;48.630;9.000;2022-07-29T13:31:03;19.20;99.90
5786;DHT22;2919;48.630;9.000;2022-07-29T13:33:30;19.30;99.90
5786;DHT22;2919;48.630;9.000;2022-07-29T13:35:55;19.50;99.90
5786;DHT22;2919;48.630;9.000;2022-07-29T13:38:21;19.60;99.90
5786;DHT22;2919;48.630;9.000;2022-07-29T13:40:47;19.60;99.90
5786;DHT22;2919;48.630;9.000;2022-07-29T13:43:13;19.70;99.90
5786;DHT22;2919;48.630;9.000;2022-07-29T13:45:38;19.90;99.90
5786;DHT22;2919;48.630;9.000;2022-07-29T13:48:04;20.00;99.90
5786;DHT22;2919;48.630;9.000;2022-07-29T13:50:31;20.10;99.90
5786;DHT22;2919;48.630;9.000;2022-07-29T13:52:58;20.40;99.90
5786;DHT22;2919;48.630;9.000;2022-07-29T13:55:23;20.40;99.90
5786;DHT22;2919;48.630;9.000;2022-07-29T13:57:49;20.50;99.90
5786;DHT22;2919;48.630;9.000;2022-07-29T14:00:15;20.60;99.90
5786;DHT22;2919;48.630;9.000;2022-07-29T14:02:42;20.70;99.90
5786;DHT22;2919;48.630;9.000;2022-07-29T14:05:08;20.70;99.90
5786;DHT22;2919;48.630;9.000;2022-07-29T14:07:36;20.80;99.90
5786;DHT22;2919;48.630;9.000;2022-07-29T14:10:02;20.80;99.90
5786;DHT22;2919;48.630;9.000;2022-07-29T14:12:27;20.90;99.90
5786;DHT22;2919;48.630;9.000;2022-07-29T14:14:53;20.90;99.90
5786;DHT22;2919;48.630;9.000;2022-07-29T14:17:19;21.00;99.90
5786;DHT22;2919;48.630;9.000;2022-07-29T14:19:44;21.00;99.90
5786;DHT22;2919;48.630;9.000;2022-07-29T14:22:10;21.00;99.90
5786;DHT22;2919;48.630;9.000;2022-07-29T14:24:36;20.90;99.90
5786;DHT22;2919;48.630;9.000;2022-07-29T14:27:02;21.00;99.90
5786;DHT22;2919;48.630;9.000;2022-07-29T14:29:28;21.10;99.90
5786;DHT22;2919;48.630;9.000;2022-07-29T14:31:54;21.10;99.90
5786;DHT22;2919;48.630;9.000;2022-07-29T14:34:19;21.20;99.90
5786;DHT22;2919;48.630;9.000;2022-07-29T14:36:45;21.30;99.90
5786;DHT22;2919;48.630;9.000;2022-07-29T14:39:11;21.30;99.90
5786;DHT22;2919;48.630;9.000;2022-07-29T14:41:37;21.40;99.90
5786;DHT22;2919;48.630;9.000;2022-07-29T14:44:03;21.30;99.90
5786;DHT22;2919;48.630;9.000;2022-07-29T14:46:29;21.40;99.90
5786;DHT22;2919;48.630;9.000;2022-07-29T14:48:55;21.50;99.90
5786;DHT22;2919;48.630;9.000;2022-07-29T14:51:20;21.40;99.90
5786;DHT22;2919;48.630;9.000;2022-07-29T14:53:46;21.40;99.90
5786;DHT22;2919;48.630;9.000;2022-07-29T14:56:12;21.40;99.90
5786;DHT22;2919;48.630;9.000;2022-07-29T14:58:38;21.30;99.90
5786;DHT22;2919;48.630;9.000;2022-07-29T15:01:03;21.40;99.90
5786;DHT22;2919;48.630;9.000;2022-07-29T15:03:29;21.40;99.90
5786;DHT22;2919;48.630;9.000;2022-07-29T15:05:55;21.50;99.90
5786;DHT22;2919;48.630;9.000;2022-07-29T15:08:20;21.60;99.90
5786;DHT22;2919;48.630;9.000;2022-07-29T15:10:46;21.60;99.90
5786;DHT22;2919;48.630;9.000;2022-07-29T15:13:12;21.50;99.90
5786;DHT22;2919;48.630;9.000;2022-07-29T15:15:38;21.40;99.90
5786;DHT22;2919;48.630;9.000;2022-07-29T15:18:04;21.30;99.90
5786;DHT22;2919;48.630;9.000;2022-07-29T15:20:30;21.20;99.90
5786;DHT22;2919;48.630;9.000;2022-07-29T15:22:55;21.20;99.90
5786;DHT22;2919;48.630;9.000;2022-07-29T15:25:22;21.20;99.90
5786;DHT22;2919;48.630;9.000;2022-07-29T15:27:48;21.30;99.90
5786;DHT22;2919;48.630;9.000;2022-07-29T15:30:14;21.40;99.90
5786;DHT22;2919;48.630;9.000;2022-07-29T15:32:45;21.50;99.90
5786;DHT22;2919;48.630;9.000;2022-07-29T15:35:11;21.50;99.90
5786;DHT22;2919;48.630;9.000;2022-07-29T15:37:38;21.60;99.90
5786;DHT22;2919;48.630;9.000;2022-07-29T15:40:05;21.60;99.90
5786;DHT22;2919;48.630;9.000;2022-07-29T15:42:31;21.70;99.90
5786;DHT22;2919;48.630;9.000;2022-07-29T15:44:57;21.70;99.90
5786;DHT22;2919;48.630;9.000;2022-07-29T15:47:22;21.80;99.90
5786;DHT22;2919;48.630;9.000;2022-07-29T15:49:48;21.90;99.90
5786;DHT22;2919;48.630;9.000;2022-07-29T15:52:19;21.90;99.90
5786;DHT22;2919;48.630;9.000;2022-07-29T15:54:44;22.00;99.90
5786;DHT22;2919;48.630;9.000;2022-07-29T15:57:10;22.00;99.90
5786;DHT22;2919;48.630;9.000;2022-07-29T15:59:36;22.20;99.90
5786;DHT22;2919;48.630;9.000;2022-07-29T16:02:02;22.20;99.90
5786;DHT22;2919;48.630;9.000;2022-07-29T16:07:04;22.40;99.90
5786;DHT22;2919;48.630;9.000;2022-07-29T16:09:30;22.50;99.90
5786;DHT22;2919;48.630;9.000;2022-07-29T16:11:55;22.50;99.90
5786;DHT22;2919;48.630;9.000;2022-07-29T16:14:21;22.50;99.90
5786;DHT22;2919;48.630;9.000;2022-07-29T16:16:47;22.60;99.90
5786;DHT22;2919;48.630;9.000;2022-07-29T16:19:13;22.50;99.90
5786;DHT22;2919;48.630;9.000;2022-07-29T16:21:39;22.50;99.90
5786;DHT22;2919;48.630;9.000;2022-07-29T16:24:05;22.50;99.90
5786;DHT22;2919;48.630;9.000;2022-07-29T16:26:32;22.60;99.90
5786;DHT22;2919;48.630;9.000;2022-07-29T16:28:58;22.60;99.90
5786;DHT22;2919;48.630;9.000;2022-07-29T16:31:24;22.60;99.90
5786;DHT22;2919;48.630;9.000;2022-07-29T16:33:51;22.50;99.90
5786;DHT22;2919;48.630;9.000;2022-07-29T16:36:17;22.50;99.90
5786;DHT22;2919;48.630;9.000;2022-07-29T16:38:43;22.50;99.90
5786;DHT22;2919;48.630;9.000;2022-07-29T16:41:09;22.50;99.90
5786;DHT22;2919;48.630;9.000;2022-07-29T16:43:34;22.40;99.90
5786;DHT22;2919;48.630;9.000;2022-07-29T16:46:00;22.40;99.90
5786;DHT22;2919;48.630;9.000;2022-07-29T16:48:26;22.30;99.90
5786;DHT22;2919;48.630;9.000;2022-07-29T16:50:51;22.40;99.90
5786;DHT22;2919;48.630;9.000;2022-07-29T16:53:17;22.40;99.90
5786;DHT22;2919;48.630;9.000;2022-07-29T16:55:43;22.40;99.90